createdAt,value
2019-05-20T00:00:18.304Z,12.47
2019-05-20T00:02:47.187Z,12.20
2019-05-20T00:05:15.624Z,12.85
2019-05-20T00:07:44.174Z,12.20
2019-05-20T00:10:12.961Z,12.45
2019-05-20T00:12:41.830Z,11.90
2019-05-20T00:15:10.622Z,10.32
2019-05-20T00:17:39.066Z,14.65
2019-05-20T00:20:07.866Z,11.63
2019-05-20T00:22:36.314Z,12.13
2019-05-20T00:25:06.511Z,12.18
2019-05-20T00:27:35.278Z,11.22
2019-05-20T00:30:04.775Z,10.30
2019-05-20T00:32:41.210Z,11.33
2019-05-20T00:35:04.746Z,10.88
2019-05-20T00:37:33.182Z,10.95
2019-05-20T00:40:01.663Z,9.83
2019-05-20T00:42:30.462Z,9.80
2019-05-20T00:44:58.972Z,9.05
2019-05-20T00:47:27.726Z,8.85
2019-05-20T00:49:56.166Z,6.87
2019-05-20T00:52:24.897Z,6.60
2019-05-20T00:54:53.688Z,7.35
2019-05-20T00:57:22.142Z,9.43
2019-05-20T00:59:50.584Z,6.53
2019-05-20T01:02:19.032Z,6.00
2019-05-20T01:04:47.468Z,6.22
2019-05-20T01:07:16.297Z,6.97
2019-05-20T01:09:44.733Z,6.47
2019-05-20T01:12:13.227Z,8.93
2019-05-20T01:14:41.689Z,5.42
2019-05-20T01:17:10.189Z,8.53
2019-05-20T01:19:38.699Z,5.60
2019-05-20T01:22:07.196Z,7.42
2019-05-20T01:24:35.745Z,5.30
2019-05-20T01:27:04.554Z,5.78
2019-05-20T01:29:33.001Z,5.05
2019-05-20T01:32:01.434Z,5.28
2019-05-20T01:34:29.884Z,4.97
2019-05-20T01:36:58.329Z,4.78
2019-05-20T01:39:26.835Z,4.53
2019-05-20T01:41:55.330Z,4.95
2019-05-20T01:44:24.131Z,5.47
2019-05-20T01:46:52.575Z,5.37
2019-05-20T01:49:21.294Z,7.30
2019-05-20T01:51:49.754Z,5.72
2019-05-20T01:54:18.211Z,5.87
2019-05-20T01:56:46.631Z,4.67
2019-05-20T01:59:15.428Z,6.45
2019-05-20T02:01:44.215Z,6.05
2019-05-20T02:04:13.004Z,5.50
2019-05-20T02:06:41.429Z,5.17
2019-05-20T02:09:10.271Z,4.70
2019-05-20T02:11:38.702Z,5.03
2019-05-20T02:14:08.797Z,4.90
2019-05-20T02:16:37.239Z,4.90
2019-05-20T02:19:05.690Z,4.80
2019-05-20T02:21:34.350Z,5.60
2019-05-20T02:24:02.789Z,5.53
2019-05-20T02:26:31.245Z,5.45
2019-05-20T02:28:59.681Z,5.30
2019-05-20T02:31:28.130Z,6.62
2019-05-20T02:33:56.554Z,5.87
2019-05-20T02:36:25.301Z,5.62
2019-05-20T02:38:54.092Z,6.62
2019-05-20T02:41:22.541Z,5.65
2019-05-20T02:43:50.972Z,5.78
2019-05-20T02:46:19.741Z,7.53
2019-05-20T02:48:48.187Z,8.03
2019-05-20T02:51:18.550Z,8.43
2019-05-20T02:53:47.182Z,8.68
2019-05-20T02:56:15.616Z,8.70
2019-05-20T02:58:44.358Z,8.85
2019-05-20T03:01:12.849Z,10.95
2019-05-20T03:03:41.566Z,12.55
2019-05-20T03:06:10.354Z,9.30
2019-05-20T03:08:39.146Z,10.82
2019-05-20T03:11:07.943Z,12.10
2019-05-20T03:13:36.726Z,10.70
2019-05-20T03:16:05.509Z,9.83
2019-05-20T03:18:34.291Z,9.58
2019-05-20T03:21:02.753Z,9.68
2019-05-20T03:23:31.582Z,10.03
2019-05-20T03:26:00.111Z,8.85
2019-05-20T03:28:28.541Z,7.70
2019-05-20T03:30:56.975Z,8.83
2019-05-20T03:33:25.822Z,8.85
2019-05-20T03:35:54.587Z,9.53
2019-05-20T03:38:23.042Z,9.00
2019-05-20T03:40:51.466Z,7.70
2019-05-20T03:43:19.917Z,9.73
2019-05-20T03:45:48.719Z,9.43
2019-05-20T03:48:17.507Z,10.90
2019-05-20T03:50:46.014Z,10.63
2019-05-20T03:53:14.884Z,9.00
2019-05-20T03:55:44.159Z,8.48
2019-05-20T03:58:13.937Z,8.93
2019-05-20T04:00:44.795Z,8.15
2019-05-20T04:03:13.858Z,7.22
2019-05-20T04:05:42.345Z,7.58
2019-05-20T04:08:11.098Z,7.83
2019-05-20T04:10:39.985Z,8.00
2019-05-20T04:13:08.419Z,6.67
2019-05-20T04:15:36.944Z,7.00
2019-05-20T04:18:05.436Z,6.95
2019-05-20T04:20:34.228Z,6.50
2019-05-20T04:23:03.104Z,7.37
2019-05-20T04:25:31.601Z,6.87
2019-05-20T04:28:00.112Z,7.17
2019-05-20T04:30:28.865Z,6.90
2019-05-20T04:32:57.313Z,6.40
2019-05-20T04:35:25.735Z,6.87
2019-05-20T04:37:54.606Z,6.30
2019-05-20T04:40:23.392Z,5.67
2019-05-20T04:42:51.838Z,5.60
2019-05-20T04:45:20.283Z,6.00
2019-05-20T04:47:48.813Z,5.03
2019-05-20T04:50:17.381Z,5.03
2019-05-20T04:52:45.806Z,5.55
2019-05-20T04:55:14.584Z,4.83
2019-05-20T04:57:43.044Z,4.47
2019-05-20T05:00:13.292Z,4.95
2019-05-20T05:02:43.621Z,4.30
2019-05-20T05:05:12.303Z,3.60
2019-05-20T05:07:40.724Z,3.70
2019-05-20T05:10:10.977Z,4.15
2019-05-20T05:12:39.693Z,4.40
2019-05-20T05:15:09.580Z,5.30
2019-05-20T05:17:38.303Z,5.05
2019-05-20T05:20:07.089Z,4.00
2019-05-20T05:22:35.528Z,5.65
2019-05-20T05:25:06.592Z,3.65
2019-05-20T05:27:35.079Z,4.72
2019-05-20T05:30:07.663Z,5.28
2019-05-20T05:32:40.432Z,3.30
2019-05-20T05:35:09.401Z,3.50
2019-05-20T05:37:37.835Z,4.03
2019-05-20T05:40:08.247Z,3.72
2019-05-20T05:42:37.236Z,3.77
2019-05-20T05:45:07.282Z,3.27
2019-05-20T05:47:35.726Z,3.42
2019-05-20T05:50:08.048Z,3.72
2019-05-20T05:52:36.794Z,4.12
2019-05-20T05:55:05.872Z,3.42
2019-05-20T05:57:34.678Z,3.58
2019-05-20T06:00:05.719Z,4.78
2019-05-20T06:02:34.146Z,3.33
2019-05-20T06:05:02.660Z,3.20
2019-05-20T06:07:31.100Z,4.78
2019-05-20T06:09:59.573Z,4.25
2019-05-20T06:12:27.997Z,3.00
2019-05-20T06:14:56.453Z,4.30
2019-05-20T06:17:25.295Z,3.02
2019-05-20T06:19:54.076Z,2.20
2019-05-20T06:22:22.538Z,3.77
2019-05-20T06:24:51.457Z,2.05
2019-05-20T06:27:20.645Z,1.90
2019-05-20T06:29:49.437Z,2.12
2019-05-20T06:32:17.894Z,2.52
2019-05-20T06:34:46.337Z,2.50
2019-05-20T06:37:19.486Z,1.60
2019-05-20T06:39:51.091Z,1.90
2019-05-20T06:42:18.126Z,1.67
2019-05-20T06:44:52.975Z,1.90
2019-05-20T06:47:16.927Z,1.72
2019-05-20T06:49:45.373Z,1.82
2019-05-20T06:52:14.165Z,2.27
2019-05-20T06:54:42.953Z,1.65
2019-05-20T06:57:11.508Z,2.02
2019-05-20T06:59:40.004Z,1.87
2019-05-20T07:02:08.444Z,2.35
2019-05-20T07:04:36.985Z,1.98
2019-05-20T07:07:19.897Z,2.17
2019-05-20T07:09:35.594Z,2.33
2019-05-20T07:12:04.369Z,2.45
2019-05-20T07:14:32.804Z,2.45
2019-05-20T07:17:01.252Z,3.83
2019-05-20T07:19:29.690Z,3.77
2019-05-20T07:21:58.132Z,2.90
2019-05-20T07:24:26.912Z,3.17
2019-05-20T07:30:23.632Z,3.42
2019-05-20T07:32:52.110Z,3.83
2019-05-20T07:35:30.095Z,4.58
2019-05-20T07:37:50.824Z,3.55
2019-05-20T07:40:31.045Z,3.72
2019-05-20T07:42:59.948Z,3.83
2019-05-20T07:45:30.917Z,3.10
2019-05-20T07:48:00.937Z,3.50
2019-05-20T07:50:29.819Z,3.60
2019-05-20T07:53:00.606Z,4.83
2019-05-20T07:55:32.115Z,4.10
2019-05-20T07:58:03.980Z,5.25
2019-05-20T08:00:32.537Z,4.42
2019-05-20T08:03:01.444Z,3.70
2019-05-20T08:05:30.234Z,4.90
2019-05-20T08:07:58.696Z,5.15
2019-05-20T08:10:27.514Z,7.42
2019-05-20T08:12:55.941Z,7.80
2019-05-20T08:15:24.674Z,6.90
2019-05-20T08:17:53.918Z,6.33
2019-05-20T08:20:23.305Z,6.53
2019-05-20T08:22:52.161Z,6.33
2019-05-20T08:25:20.730Z,6.65
2019-05-20T08:27:49.187Z,8.05
2019-05-20T08:30:20.980Z,7.30
2019-05-20T08:32:49.429Z,7.03
2019-05-20T08:35:18.268Z,8.38
2019-05-20T08:37:46.781Z,7.15
2019-05-20T08:40:15.349Z,7.05
2019-05-20T08:42:44.139Z,6.47
2019-05-20T08:45:12.763Z,7.28
2019-05-20T08:47:41.738Z,7.00
2019-05-20T08:50:15.710Z,6.97
2019-05-20T08:52:40.803Z,8.80
2019-05-20T08:55:09.329Z,9.83
2019-05-20T08:57:37.787Z,8.75
2019-05-20T09:00:07.287Z,8.55
2019-05-20T09:02:35.801Z,9.93
2019-05-20T09:05:05.991Z,13.32
2019-05-20T09:07:34.501Z,11.90
2019-05-20T09:10:02.989Z,10.75
2019-05-20T09:12:31.420Z,10.45
2019-05-20T09:14:59.861Z,9.73
2019-05-20T09:17:28.318Z,11.15
2019-05-20T09:19:56.768Z,11.38
2019-05-20T09:22:25.546Z,11.50
2019-05-20T09:24:54.056Z,11.22
2019-05-20T09:27:22.817Z,11.03
2019-05-20T09:29:51.248Z,11.08
2019-05-20T09:32:20.214Z,13.40
2019-05-20T09:34:48.963Z,11.28
2019-05-20T09:37:17.498Z,11.85
2019-05-20T09:39:45.941Z,12.10
2019-05-20T09:42:14.741Z,13.62
2019-05-20T09:44:43.178Z,12.53
2019-05-20T09:47:18.131Z,15.35
2019-05-20T09:49:46.934Z,13.43
2019-05-20T09:52:15.376Z,13.30
2019-05-20T09:54:45.620Z,13.45
2019-05-20T09:57:14.313Z,14.53
2019-05-20T09:59:43.873Z,17.12
2019-05-20T10:02:12.557Z,18.10
2019-05-20T10:04:41.296Z,19.40
2019-05-20T10:07:10.090Z,14.63
2019-05-20T10:09:38.548Z,14.20
2019-05-20T10:12:06.995Z,13.05
2019-05-20T10:14:35.535Z,12.58
2019-05-20T10:17:03.971Z,12.45
2019-05-20T10:19:32.801Z,12.58
2019-05-20T10:22:01.251Z,12.68
2019-05-20T10:24:30.071Z,12.78
2019-05-20T10:26:58.558Z,12.47
2019-05-20T10:29:27.344Z,13.35
2019-05-20T10:31:56.127Z,13.65
2019-05-20T10:34:24.909Z,13.22
2019-05-20T10:36:53.379Z,13.20
2019-05-20T10:39:22.080Z,13.15
2019-05-20T10:41:50.547Z,12.43
2019-05-20T10:44:18.995Z,14.73
2019-05-20T10:46:47.455Z,14.73
2019-05-20T10:49:15.887Z,17.67
2019-05-20T10:51:44.469Z,13.93
2019-05-20T10:54:13.075Z,13.88
2019-05-20T10:56:41.557Z,13.93
2019-05-20T10:59:12.063Z,14.20
2019-05-20T11:01:40.556Z,14.47
2019-05-20T11:04:09.029Z,14.78
2019-05-20T11:06:37.466Z,14.30
2019-05-20T11:09:14.021Z,15.83
2019-05-20T11:11:39.437Z,14.83
2019-05-20T11:14:07.375Z,15.13
2019-05-20T11:16:35.800Z,14.23
2019-05-20T11:19:04.430Z,15.48
2019-05-20T11:21:32.905Z,18.02
2019-05-20T11:24:01.455Z,14.83
2019-05-20T11:26:30.193Z,14.35
2019-05-20T11:28:59.078Z,14.95
2019-05-20T11:31:27.513Z,15.05
2019-05-20T11:33:57.666Z,16.67
2019-05-20T11:36:26.281Z,13.53
2019-05-20T11:38:54.713Z,14.75
2019-05-20T11:41:51.283Z,17.15
2019-05-20T11:43:53.764Z,17.37
2019-05-20T11:46:22.545Z,14.85
2019-05-20T11:48:51.054Z,20.27
2019-05-20T11:51:19.520Z,21.15
2019-05-20T11:53:48.438Z,21.87
2019-05-20T11:56:16.882Z,18.45
2019-05-20T11:58:45.335Z,18.42
2019-05-20T12:01:13.774Z,21.55
2019-05-20T12:03:42.299Z,22.48
2019-05-20T12:06:10.856Z,20.40
2019-05-20T12:08:39.317Z,19.87
2019-05-20T12:11:07.759Z,19.90
2019-05-20T12:13:36.228Z,20.00
2019-05-20T12:16:04.655Z,18.07
2019-05-20T12:18:33.429Z,21.33
2019-05-20T12:21:02.206Z,18.85
2019-05-20T12:23:30.665Z,18.12
2019-05-20T12:25:59.126Z,19.23
2019-05-20T12:28:28.005Z,19.50
2019-05-20T12:30:56.451Z,19.82
2019-05-20T12:33:24.891Z,18.90
2019-05-20T12:35:53.700Z,19.55
2019-05-20T12:38:22.489Z,19.20
2019-05-20T12:40:50.937Z,21.93
2019-05-20T12:43:19.393Z,17.65
2019-05-20T12:45:48.136Z,18.67
2019-05-20T12:48:16.667Z,17.42
2019-05-20T12:50:45.181Z,18.95
2019-05-20T12:53:13.902Z,19.12
2019-05-20T12:55:42.559Z,16.15
2019-05-20T12:58:11.000Z,18.60
2019-05-20T13:00:39.461Z,16.77
2019-05-20T13:03:08.153Z,16.65
2019-05-20T13:05:36.692Z,18.70
2019-05-20T13:08:05.722Z,16.93
2019-05-20T13:10:34.345Z,18.25
2019-05-20T13:13:02.823Z,18.05
2019-05-20T13:15:31.395Z,16.95
2019-05-20T13:18:00.341Z,16.23
2019-05-20T13:20:28.786Z,16.20
2019-05-20T13:22:57.263Z,19.05
2019-05-20T13:25:25.709Z,18.80
2019-05-20T13:27:54.153Z,17.70
2019-05-20T13:30:23.366Z,18.42
2019-05-20T13:32:51.926Z,18.40
2019-05-20T13:35:20.844Z,19.48
2019-05-20T13:37:49.275Z,18.60
2019-05-20T13:40:19.676Z,17.70
2019-05-20T13:42:48.430Z,18.42
2019-05-20T13:45:17.330Z,18.23
2019-05-20T13:47:45.810Z,19.75
2019-05-20T13:50:14.487Z,18.40
2019-05-20T13:52:43.284Z,20.12
2019-05-20T13:55:12.263Z,21.45
2019-05-20T13:57:40.796Z,21.30
2019-05-20T14:00:09.942Z,20.43
2019-05-20T14:02:38.463Z,20.23
2019-05-20T14:05:07.033Z,19.90
2019-05-20T14:07:35.925Z,21.90
2019-05-20T14:10:08.702Z,19.92
2019-05-20T14:12:37.519Z,18.65
2019-05-20T14:15:09.440Z,20.77
2019-05-20T14:17:38.231Z,21.33
2019-05-20T14:20:07.228Z,19.65
2019-05-20T14:22:35.658Z,19.12
2019-05-20T14:25:06.309Z,20.40
2019-05-20T14:27:35.120Z,19.52
2019-05-20T14:30:06.122Z,19.73
2019-05-20T14:32:34.599Z,19.98
2019-05-20T14:35:04.248Z,18.57
2019-05-20T14:37:32.690Z,20.80
2019-05-20T14:40:01.416Z,22.20
2019-05-20T14:42:29.883Z,20.68
2019-05-20T14:44:58.689Z,21.80
2019-05-20T14:47:27.145Z,22.35
2019-05-20T14:49:55.860Z,20.23
2019-05-20T14:52:24.325Z,22.37
2019-05-20T14:54:53.120Z,21.95
2019-05-20T14:57:21.673Z,23.02
2019-05-20T14:59:50.391Z,27.98
2019-05-20T15:02:19.124Z,25.32
2019-05-20T15:04:47.615Z,28.00
2019-05-20T15:07:29.445Z,25.17
2019-05-20T15:09:46.572Z,24.10
2019-05-20T15:12:15.017Z,28.65
2019-05-20T15:14:43.785Z,29.25
2019-05-20T15:17:12.339Z,28.75
2019-05-20T15:19:40.795Z,27.73
2019-05-20T15:22:09.235Z,29.37
2019-05-20T15:24:38.071Z,29.20
2019-05-20T15:27:06.559Z,30.12
2019-05-20T15:29:35.341Z,28.87
2019-05-20T15:32:03.808Z,30.95
2019-05-20T15:34:32.242Z,29.23
2019-05-20T15:37:00.762Z,31.12
2019-05-20T15:39:29.577Z,30.72
2019-05-20T15:41:58.080Z,33.42
2019-05-20T15:44:26.568Z,30.25
2019-05-20T15:46:55.429Z,33.28
2019-05-20T15:49:23.861Z,31.12
2019-05-20T15:51:52.608Z,32.23
2019-05-20T15:54:21.049Z,31.37
2019-05-20T15:56:49.569Z,31.55
2019-05-20T15:59:18.346Z,32.93
2019-05-20T16:01:46.789Z,30.32
2019-05-20T16:04:15.249Z,30.08
2019-05-20T16:06:43.692Z,30.88
2019-05-20T16:09:16.948Z,32.23
2019-05-20T16:11:43.432Z,27.30
2019-05-20T16:14:11.945Z,30.12
2019-05-20T16:16:40.389Z,32.85
2019-05-20T16:19:09.263Z,31.20
2019-05-20T16:21:37.778Z,31.75
2019-05-20T16:24:07.974Z,33.05
2019-05-20T16:26:36.456Z,31.55
2019-05-20T16:29:05.250Z,34.75
2019-05-20T16:31:34.138Z,31.85
2019-05-20T16:34:02.916Z,32.50
2019-05-20T16:36:31.372Z,33.05
2019-05-20T16:38:59.822Z,30.75
2019-05-20T16:41:28.572Z,35.40
2019-05-20T16:43:57.008Z,32.90
2019-05-20T16:46:25.738Z,31.95
2019-05-20T16:48:54.203Z,30.68
2019-05-20T16:51:22.718Z,33.35
2019-05-20T16:53:51.487Z,33.08
2019-05-20T16:56:20.273Z,35.68
2019-05-20T16:58:48.791Z,29.15
2019-05-20T17:01:17.224Z,33.63
2019-05-20T17:03:45.685Z,32.40
2019-05-20T17:06:14.115Z,33.58
2019-05-20T17:08:42.885Z,31.37
2019-05-20T17:11:11.329Z,32.85
2019-05-20T17:13:40.161Z,33.18
2019-05-20T17:16:08.942Z,33.78
2019-05-20T17:18:37.740Z,33.65
2019-05-20T17:21:06.259Z,33.63
2019-05-20T17:23:35.003Z,31.48
2019-05-20T17:26:03.755Z,33.00
2019-05-20T17:28:32.475Z,33.38
2019-05-20T17:31:02.056Z,35.45
2019-05-20T17:33:30.770Z,35.03
2019-05-20T17:35:59.228Z,36.17
2019-05-20T17:38:27.655Z,35.10
2019-05-20T17:40:56.102Z,31.15
2019-05-20T17:43:24.618Z,36.77
2019-05-20T17:45:53.065Z,35.03
2019-05-20T17:48:21.867Z,35.33
2019-05-20T17:50:50.473Z,33.80
2019-05-20T17:53:19.238Z,31.62
2019-05-20T17:55:48.046Z,31.07
2019-05-20T17:58:16.560Z,32.42
2019-05-20T18:00:45.276Z,30.40
2019-05-20T18:03:13.711Z,26.45
2019-05-20T18:05:42.172Z,32.23
2019-05-20T18:08:10.602Z,30.80
2019-05-20T18:10:39.063Z,29.27
2019-05-20T18:13:13.681Z,25.25
2019-05-20T18:15:42.523Z,26.82
2019-05-20T18:18:10.971Z,24.70
2019-05-20T18:20:39.432Z,26.27
2019-05-20T18:23:07.870Z,26.00
2019-05-20T18:25:36.321Z,25.97
2019-05-20T18:28:04.833Z,27.73
2019-05-20T18:30:33.318Z,25.27
2019-05-20T18:33:01.766Z,29.45
2019-05-20T18:35:30.191Z,31.20
2019-05-20T18:37:58.661Z,32.33
2019-05-20T18:40:27.097Z,29.52
2019-05-20T18:42:55.823Z,35.73
2019-05-20T18:45:24.260Z,31.75
2019-05-20T18:47:52.721Z,34.08
2019-05-20T18:50:21.288Z,37.90
2019-05-20T18:52:50.256Z,36.77
2019-05-20T18:55:19.054Z,32.58
2019-05-20T18:57:47.480Z,35.88
2019-05-20T19:00:17.139Z,37.35
2019-05-20T19:02:45.921Z,31.75
2019-05-20T19:05:15.022Z,36.03
2019-05-20T19:07:43.556Z,32.15
2019-05-20T19:10:12.916Z,35.13
2019-05-20T19:12:41.722Z,33.25
2019-05-20T19:15:10.556Z,30.52
2019-05-20T19:17:39.021Z,22.48
2019-05-20T19:20:07.913Z,22.20
2019-05-20T19:22:36.342Z,24.90
2019-05-20T19:25:06.845Z,27.40
2019-05-20T19:27:35.604Z,32.95
2019-05-20T19:30:05.781Z,37.08
2019-05-20T19:32:34.245Z,32.98
2019-05-20T19:35:03.150Z,35.17
2019-05-20T19:37:31.648Z,33.73
2019-05-20T19:40:00.407Z,25.02
2019-05-20T19:42:28.942Z,27.22
2019-05-20T19:44:57.390Z,27.65
2019-05-20T19:47:25.864Z,30.05
2019-05-20T19:49:54.332Z,30.50
2019-05-20T19:52:23.130Z,33.98
2019-05-20T19:54:51.632Z,33.25
2019-05-20T19:57:20.403Z,35.00
2019-05-20T19:59:49.188Z,32.13
2019-05-20T20:02:18.130Z,35.13
2019-05-20T20:04:46.846Z,37.83
2019-05-20T20:07:15.330Z,35.40
2019-05-20T20:09:44.137Z,33.10
2019-05-20T20:12:12.595Z,30.17
2019-05-20T20:14:41.136Z,32.83
2019-05-20T20:17:09.585Z,28.57
2019-05-20T20:19:38.016Z,30.70
2019-05-20T20:22:06.743Z,37.73
2019-05-20T20:24:35.186Z,36.77
2019-05-20T20:27:03.714Z,41.00
2019-05-20T20:29:32.157Z,38.40
2019-05-20T20:32:00.613Z,36.28
2019-05-20T20:34:30.669Z,33.38
2019-05-20T20:36:59.286Z,33.05
2019-05-20T20:39:28.157Z,30.95
2019-05-20T20:41:56.953Z,33.48
2019-05-20T20:44:25.741Z,36.38
2019-05-20T20:46:54.188Z,35.10
2019-05-20T20:49:22.707Z,34.60
2019-05-20T20:51:51.141Z,30.82
2019-05-20T20:54:19.591Z,29.12
2019-05-20T20:56:48.344Z,21.60
2019-05-20T20:59:17.137Z,25.57
2019-05-20T21:01:45.926Z,26.25
2019-05-20T21:04:14.367Z,26.42
2019-05-20T21:06:43.105Z,21.55
2019-05-20T21:09:11.532Z,16.55
2019-05-20T21:11:39.989Z,16.70
2019-05-20T21:14:08.438Z,16.50
2019-05-20T21:16:37.229Z,15.78
2019-05-20T21:19:05.664Z,10.68
2019-05-20T21:21:34.134Z,10.53
2019-05-20T21:24:02.714Z,8.65
2019-05-20T21:26:31.187Z,6.90
2019-05-20T21:28:59.940Z,4.83
2019-05-20T21:31:28.373Z,5.62
2019-05-20T21:33:56.825Z,5.40
2019-05-20T21:36:25.581Z,5.00
2019-05-20T21:38:54.046Z,3.98
2019-05-20T21:41:22.851Z,3.72
2019-05-20T21:43:51.318Z,4.53
2019-05-20T21:46:19.735Z,4.72
2019-05-20T21:48:48.203Z,4.42
2019-05-20T21:51:16.643Z,4.67
2019-05-20T21:53:45.118Z,5.55
2019-05-20T21:56:13.947Z,5.28
2019-05-20T21:58:42.380Z,4.92
2019-05-20T22:01:10.882Z,5.35
2019-05-20T22:03:39.316Z,4.45
2019-05-20T22:06:07.776Z,5.80
2019-05-20T22:08:39.178Z,4.37
2019-05-20T22:11:07.908Z,4.85
2019-05-20T22:13:36.693Z,5.35
2019-05-20T22:16:05.136Z,4.65
2019-05-20T22:18:33.583Z,7.20
2019-05-20T22:21:02.048Z,7.30
2019-05-20T22:23:34.643Z,6.72
2019-05-20T22:26:03.087Z,8.00
2019-05-20T22:28:31.900Z,8.43
2019-05-20T22:31:00.671Z,6.65
2019-05-20T22:33:40.876Z,7.70
2019-05-20T22:35:59.615Z,8.65
2019-05-20T22:38:28.359Z,7.70
2019-05-20T22:40:56.809Z,8.35
2019-05-20T22:43:25.249Z,6.70
2019-05-20T22:45:54.022Z,6.80
2019-05-20T22:48:22.642Z,7.85
2019-05-20T22:50:51.207Z,8.03
2019-05-20T22:53:19.628Z,8.48
2019-05-20T22:55:48.076Z,7.67
2019-05-20T22:58:16.829Z,6.72
2019-05-20T23:00:45.287Z,7.25
2019-05-20T23:03:13.705Z,7.83
2019-05-20T23:05:42.180Z,6.85
2019-05-20T23:08:11.081Z,6.87
2019-05-20T23:10:39.526Z,7.65
2019-05-20T23:13:07.967Z,7.35
2019-05-20T23:15:36.407Z,7.97
2019-05-20T23:18:05.187Z,8.08
2019-05-20T23:20:33.675Z,6.12
2019-05-20T23:23:02.115Z,6.83
2019-05-20T23:25:30.925Z,5.72
2019-05-20T23:27:59.394Z,6.50
2019-05-20T23:30:28.109Z,6.00
2019-05-20T23:32:56.588Z,7.12
2019-05-20T23:35:25.017Z,5.83
2019-05-20T23:37:53.520Z,6.12
2019-05-20T23:40:21.978Z,7.67
2019-05-20T23:42:50.412Z,5.03
2019-05-20T23:45:18.934Z,4.83
2019-05-20T23:47:47.635Z,5.33
2019-05-20T23:50:16.250Z,4.58
2019-05-20T23:52:44.683Z,4.10
2019-05-20T23:55:13.274Z,6.62
2019-05-20T23:57:41.705Z,5.20
